Time;durP1;ratioP1;P1;durP2;ratioP2;P2;SDS_P1;SDS_P2;PMS_P1;PMS_P2;Temp;Humidity;BMP_temperature;BMP_pressure;BME280_temperature;BME280_humidity;BME280_pressure;Samples;Min_cycle;Max_cycle;Signal;HPM_P1;HPM_P2
2022/03/09 00:00:17;;;;;;;;;;;8.30;99.90;;;;;;5092370;28;19919;-78
2022/03/09 00:02:42;;;;;;;;;;;8.30;99.90;;;;;;5094194;28;19908;-78
2022/03/09 00:05:08;;;;;;;;;;;8.30;99.90;;;;;;5093518;28;19961;-77
2022/03/09 00:07:34;;;;;;;;;;;8.30;99.90;;;;;;5093999;28;19912;-78
2022/03/09 00:10:00;;;;;;;;;;;8.30;99.90;;;;;;5106794;28;19914;-78
2022/03/09 00:12:25;;;;;;;;;;;8.30;99.90;;;;;;5096270;28;20353;-79
2022/03/09 00:14:51;;;;;;;;;;;8.30;99.90;;;;;;5094129;28;19908;-78
2022/03/09 00:17:16;;;;;;;;;;;8.20;99.90;;;;;;5093212;28;19955;-78
2022/03/09 00:19:42;;;;;;;;;;;8.20;99.90;;;;;;5093994;28;19915;-78
2022/03/09 00:22:07;;;;;;;;;;;8.30;99.90;;;;;;5093202;28;19912;-77
2022/03/09 00:24:33;;;;;;;;;;;8.30;99.90;;;;;;5093626;28;19991;-78
2022/03/09 00:26:59;;;;;;;;;;;8.30;99.90;;;;;;5094126;28;20349;-78
2022/03/09 00:29:25;;;;;;;;;;;8.30;99.90;;;;;;5092741;28;20463;-78
2022/03/09 00:31:51;;;;;;;;;;;8.30;99.90;;;;;;5093633;28;19914;-78
2022/03/09 00:34:16;;;;;;;;;;;8.30;99.90;;;;;;5093086;28;19912;-78
2022/03/09 00:36:42;;;;;;;;;;;8.40;99.90;;;;;;5091868;28;19998;-78
2022/03/09 00:39:08;;;;;;;;;;;8.40;99.90;;;;;;5092994;28;20415;-76
2022/03/09 00:41:33;;;;;;;;;;;8.40;99.90;;;;;;5093031;28;20050;-78
2022/03/09 00:43:59;;;;;;;;;;;8.40;99.90;;;;;;5093378;28;19915;-78
2022/03/09 00:46:24;;;;;;;;;;;8.40;99.90;;;;;;5092381;28;20365;-78
2022/03/09 00:48:50;;;;;;;;;;;8.40;99.90;;;;;;5092883;28;19999;-78
2022/03/09 00:51:15;;;;;;;;;;;8.40;99.90;;;;;;5092376;28;19999;-77
2022/03/09 00:53:41;;;;;;;;;;;8.40;99.90;;;;;;5093327;28;19908;-78
2022/03/09 00:56:06;;;;;;;;;;;8.40;99.90;;;;;;5092931;28;20372;-77
2022/03/09 00:58:32;;;;;;;;;;;8.50;99.90;;;;;;5091153;28;20006;-78
2022/03/09 01:00:58;;;;;;;;;;;8.50;99.90;;;;;;5093258;28;19908;-78
2022/03/09 01:03:23;;;;;;;;;;;8.50;99.90;;;;;;5092635;28;19998;-78
2022/03/09 01:05:49;;;;;;;;;;;8.50;99.90;;;;;;5092356;28;19909;-78
2022/03/09 01:08:15;;;;;;;;;;;8.60;99.90;;;;;;5092422;28;20342;-78
2022/03/09 01:10:40;;;;;;;;;;;8.50;99.90;;;;;;5092841;28;20311;-78
2022/03/09 01:13:06;;;;;;;;;;;8.60;99.90;;;;;;5091846;28;19920;-78
2022/03/09 01:15:32;;;;;;;;;;;8.60;99.90;;;;;;5092557;28;19915;-78
2022/03/09 01:17:57;;;;;;;;;;;8.70;99.90;;;;;;5093116;28;20262;-78
2022/03/09 01:20:23;;;;;;;;;;;8.70;99.90;;;;;;5092422;28;19909;-78
2022/03/09 01:22:49;;;;;;;;;;;8.70;99.90;;;;;;5093012;28;20373;-78
2022/03/09 01:25:14;;;;;;;;;;;8.70;99.90;;;;;;5100331;28;19953;-78
2022/03/09 01:27:40;;;;;;;;;;;8.70;99.90;;;;;;5098405;28;19909;-78
2022/03/09 01:30:06;;;;;;;;;;;8.70;99.90;;;;;;5092778;28;20376;-78
2022/03/09 01:32:31;;;;;;;;;;;8.60;99.90;;;;;;5092375;28;19989;-77
2022/03/09 01:34:57;;;;;;;;;;;8.70;99.90;;;;;;5092778;28;19912;-78
2022/03/09 01:37:23;;;;;;;;;;;8.70;99.90;;;;;;5092224;28;20249;-78
2022/03/09 01:39:48;;;;;;;;;;;8.70;99.90;;;;;;5092835;28;19909;-77
2022/03/09 01:42:14;;;;;;;;;;;8.60;99.90;;;;;;5092336;28;20273;-77
2022/03/09 01:44:39;;;;;;;;;;;8.70;99.90;;;;;;5092545;28;19915;-78
2022/03/09 01:47:05;;;;;;;;;;;8.60;99.90;;;;;;5092782;28;19915;-77
2022/03/09 01:49:31;;;;;;;;;;;8.60;99.90;;;;;;5092086;28;19984;-76
2022/03/09 01:51:58;;;;;;;;;;;8.60;99.90;;;;;;5092638;28;19919;-76
2022/03/09 01:54:24;;;;;;;;;;;8.70;99.90;;;;;;5092107;28;19915;-77
2022/03/09 01:56:49;;;;;;;;;;;8.70;99.90;;;;;;5092497;28;20339;-77
2022/03/09 01:59:15;;;;;;;;;;;8.60;99.90;;;;;;5092064;28;20010;-76
2022/03/09 02:01:41;;;;;;;;;;;8.60;99.90;;;;;;5092366;28;19931;-77
2022/03/09 02:04:07;;;;;;;;;;;8.60;99.90;;;;;;5092678;28;20010;-77
2022/03/09 02:06:34;;;;;;;;;;;8.60;99.90;;;;;;5091958;28;20157;-76
2022/03/09 02:11:47;;;;;;;;;;;8.70;99.90;;;;;;5092382;28;19919;-77
2022/03/09 02:14:32;;;;;;;;;;;8.60;99.90;;;;;;5092584;28;19986;-76
2022/03/09 02:16:59;;;;;;;;;;;8.70;99.90;;;;;;5093698;28;20370;-76
2022/03/09 02:19:25;;;;;;;;;;;8.60;99.90;;;;;;5095645;28;20277;-77
2022/03/09 02:21:51;;;;;;;;;;;8.60;99.90;;;;;;5095901;28;19908;-76
2022/03/09 02:24:17;;;;;;;;;;;8.60;99.90;;;;;;5095469;28;19912;-77
2022/03/09 02:26:43;;;;;;;;;;;8.60;99.90;;;;;;5096174;28;20451;-77
2022/03/09 02:29:08;;;;;;;;;;;8.60;99.90;;;;;;5096079;28;20012;-78
2022/03/09 02:31:34;;;;;;;;;;;8.60;99.90;;;;;;5095459;28;19911;-77
2022/03/09 02:33:59;;;;;;;;;;;8.60;99.90;;;;;;5095998;28;19908;-78
2022/03/09 02:36:25;;;;;;;;;;;8.60;99.90;;;;;;5094079;28;19912;-78
2022/03/09 02:38:51;;;;;;;;;;;8.60;99.90;;;;;;5100066;28;20334;-79
2022/03/09 02:41:16;;;;;;;;;;;8.60;99.90;;;;;;5105976;28;20357;-77
2022/03/09 02:43:42;;;;;;;;;;;8.60;99.90;;;;;;5095817;28;19909;-78
2022/03/09 02:46:07;;;;;;;;;;;8.60;99.90;;;;;;5095470;28;19908;-78
2022/03/09 02:48:33;;;;;;;;;;;8.60;99.90;;;;;;5095007;28;20029;-78
2022/03/09 02:50:58;;;;;;;;;;;8.60;99.90;;;;;;5095672;28;20272;-78
2022/03/09 02:53:24;;;;;;;;;;;8.60;99.90;;;;;;5094558;28;19960;-78
2022/03/09 02:55:50;;;;;;;;;;;8.60;99.90;;;;;;5095602;28;19908;-78
2022/03/09 02:58:15;;;;;;;;;;;8.60;99.90;;;;;;5094998;28;20440;-77
2022/03/09 03:00:41;;;;;;;;;;;8.60;99.90;;;;;;5095183;28;19912;-78
2022/03/09 03:03:06;;;;;;;;;;;8.70;99.90;;;;;;5095148;28;19912;-78
2022/03/09 03:05:32;;;;;;;;;;;8.70;99.90;;;;;;5094568;28;19998;-77
2022/03/09 03:07:57;;;;;;;;;;;8.80;99.90;;;;;;5095295;28;19908;-78
2022/03/09 03:10:23;;;;;;;;;;;8.90;99.90;;;;;;5094710;28;19908;-77
2022/03/09 03:12:48;;;;;;;;;;;8.90;99.90;;;;;;5095351;28;20426;-77
2022/03/09 03:15:14;;;;;;;;;;;9.00;99.90;;;;;;5095214;28;19961;-77
2022/03/09 03:17:40;;;;;;;;;;;9.10;99.90;;;;;;5093370;28;19912;-78
2022/03/09 03:20:05;;;;;;;;;;;9.20;99.90;;;;;;5095297;28;19908;-77
2022/03/09 03:22:31;;;;;;;;;;;9.20;99.90;;;;;;5094332;28;19937;-77
2022/03/09 03:24:57;;;;;;;;;;;9.30;99.90;;;;;;5094948;28;19912;-77
2022/03/09 03:27:22;;;;;;;;;;;9.30;99.90;;;;;;5094464;28;19915;-76
2022/03/09 03:29:48;;;;;;;;;;;9.30;99.90;;;;;;5094235;28;19916;-77
2022/03/09 03:32:13;;;;;;;;;;;9.30;99.90;;;;;;5094891;28;19915;-78
2022/03/09 03:34:39;;;;;;;;;;;9.30;99.90;;;;;;5094279;28;19904;-78
2022/03/09 03:37:04;;;;;;;;;;;9.30;99.90;;;;;;5095156;28;20360;-78
2022/03/09 03:39:30;;;;;;;;;;;9.30;99.90;;;;;;5094002;28;20264;-77
2022/03/09 03:41:55;;;;;;;;;;;9.30;99.90;;;;;;5094828;28;19908;-77
2022/03/09 03:44:21;;;;;;;;;;;9.40;99.90;;;;;;5094134;28;19915;-77
2022/03/09 03:46:47;;;;;;;;;;;9.40;99.90;;;;;;5094773;28;20045;-77
2022/03/09 03:49:12;;;;;;;;;;;9.40;99.90;;;;;;5094586;28;20340;-78
2022/03/09 03:51:38;;;;;;;;;;;9.40;99.90;;;;;;5093955;28;19915;-78
2022/03/09 03:54:03;;;;;;;;;;;9.50;99.90;;;;;;5109321;28;19909;-77
2022/03/09 03:56:29;;;;;;;;;;;9.60;99.90;;;;;;5093823;28;19915;-78
2022/03/09 03:58:54;;;;;;;;;;;9.60;99.90;;;;;;5094458;28;19920;-78
2022/03/09 04:01:20;;;;;;;;;;;9.60;99.90;;;;;;5094583;28;19908;-76
2022/03/09 04:03:46;;;;;;;;;;;9.60;99.90;;;;;;5094077;28;20372;-77
2022/03/09 04:06:11;;;;;;;;;;;9.50;99.90;;;;;;5094166;28;19962;-78
2022/03/09 04:08:37;;;;;;;;;;;9.60;99.90;;;;;;5093416;28;19927;-78
2022/03/09 04:11:02;;;;;;;;;;;9.50;99.90;;;;;;5094032;28;20007;-78
2022/03/09 04:13:28;;;;;;;;;;;9.50;99.90;;;;;;5093607;28;20307;-77
2022/03/09 04:15:53;;;;;;;;;;;9.50;99.90;;;;;;5092840;28;19951;-78
2022/03/09 04:18:19;;;;;;;;;;;9.40;99.90;;;;;;5094005;28;20277;-78
2022/03/09 04:20:45;;;;;;;;;;;9.40;99.90;;;;;;5093181;28;19908;-78
2022/03/09 04:23:10;;;;;;;;;;;9.30;99.90;;;;;;5094083;28;20373;-78
2022/03/09 04:25:37;;;;;;;;;;;9.30;99.90;;;;;;5093163;28;20369;-78
2022/03/09 04:28:03;;;;;;;;;;;9.30;99.90;;;;;;5093823;28;19908;-77
2022/03/09 04:30:28;;;;;;;;;;;9.30;99.90;;;;;;5093260;28;19915;-77
2022/03/09 04:32:54;;;;;;;;;;;9.20;99.90;;;;;;5094210;28;20385;-77
2022/03/09 04:35:19;;;;;;;;;;;9.30;99.90;;;;;;5093715;28;20257;-77
2022/03/09 04:37:45;;;;;;;;;;;9.20;99.90;;;;;;5093112;28;19908;-77
2022/03/09 04:40:11;;;;;;;;;;;9.20;99.90;;;;;;5093612;28;19915;-77
2022/03/09 04:42:37;;;;;;;;;;;9.30;99.90;;;;;;5092849;28;19955;-78
2022/03/09 04:45:02;;;;;;;;;;;9.30;99.90;;;;;;5093440;28;20365;-78
2022/03/09 04:47:28;;;;;;;;;;;9.40;99.90;;;;;;5093031;28;19908;-78
2022/03/09 04:49:54;;;;;;;;;;;9.40;99.90;;;;;;5093306;28;19997;-78
2022/03/09 04:52:19;;;;;;;;;;;9.40;99.90;;;;;;5093437;28;19909;-78
2022/03/09 04:54:45;;;;;;;;;;;9.40;99.90;;;;;;5092823;28;20689;-78
2022/03/09 04:57:11;;;;;;;;;;;9.40;99.90;;;;;;5093191;28;19908;-78
2022/03/09 04:59:36;;;;;;;;;;;9.50;99.90;;;;;;5092384;28;19924;-78
2022/03/09 05:02:02;;;;;;;;;;;9.60;99.90;;;;;;5092146;28;20357;-78
2022/03/09 05:04:28;;;;;;;;;;;9.60;99.90;;;;;;5092714;28;19931;-76
2022/03/09 05:06:53;;;;;;;;;;;9.60;99.90;;;;;;5093167;28;19908;-77
2022/03/09 05:09:19;;;;;;;;;;;9.60;99.90;;;;;;5105665;28;19916;-80
2022/03/09 05:11:44;;;;;;;;;;;9.60;99.90;;;;;;5092673;28;19904;-77
2022/03/09 05:14:10;;;;;;;;;;;9.70;99.90;;;;;;5091957;28;20448;-78
2022/03/09 05:16:35;;;;;;;;;;;9.70;99.90;;;;;;5092560;28;20422;-77
2022/03/09 05:19:02;;;;;;;;;;;9.70;99.90;;;;;;5092814;28;19908;-77
2022/03/09 05:21:27;;;;;;;;;;;9.70;99.90;;;;;;5092542;28;20376;-76
2022/03/09 05:23:53;;;;;;;;;;;9.70;99.90;;;;;;5092737;28;19934;-77
2022/03/09 05:26:18;;;;;;;;;;;9.70;99.90;;;;;;5092926;28;20002;-78
2022/03/09 05:28:44;;;;;;;;;;;9.70;99.90;;;;;;5092076;28;20277;-79
2022/03/09 05:31:09;;;;;;;;;;;9.70;99.90;;;;;;5092906;28;19909;-77
2022/03/09 05:33:35;;;;;;;;;;;9.70;99.90;;;;;;5090957;28;19915;-77
2022/03/09 05:36:00;;;;;;;;;;;9.70;99.90;;;;;;5092817;28;19915;-77
2022/03/09 05:38:26;;;;;;;;;;;9.80;99.90;;;;;;5092539;28;19946;-76
2022/03/09 05:40:52;;;;;;;;;;;9.80;99.90;;;;;;5092512;28;19948;-76
2022/03/09 05:43:17;;;;;;;;;;;9.80;99.90;;;;;;5093078;28;20257;-78
2022/03/09 05:45:43;;;;;;;;;;;9.90;99.90;;;;;;5090838;28;19999;-77
2022/03/09 05:48:08;;;;;;;;;;;9.90;99.90;;;;;;5091345;28;19923;-78
2022/03/09 05:50:35;;;;;;;;;;;9.90;99.90;;;;;;5092121;28;19908;-78
2022/03/09 05:53:01;;;;;;;;;;;9.90;99.90;;;;;;5095541;28;19908;-78
2022/03/09 05:55:26;;;;;;;;;;;9.90;99.90;;;;;;5096667;28;19935;-78
2022/03/09 05:57:52;;;;;;;;;;;9.90;99.90;;;;;;5095708;28;19959;-78
2022/03/09 06:00:17;;;;;;;;;;;10.00;99.90;;;;;;5096699;28;19915;-78
2022/03/09 06:02:43;;;;;;;;;;;10.00;99.90;;;;;;5096084;28;20400;-77
2022/03/09 06:05:09;;;;;;;;;;;10.00;99.90;;;;;;5096493;28;19908;-77
2022/03/09 06:07:35;;;;;;;;;;;10.00;99.90;;;;;;5095852;28;19914;-77
2022/03/09 06:10:01;;;;;;;;;;;10.00;99.90;;;;;;5096367;28;19976;-77
2022/03/09 06:12:26;;;;;;;;;;;10.00;99.90;;;;;;5096434;28;19958;-77
2022/03/09 06:14:52;;;;;;;;;;;10.00;99.90;;;;;;5095685;28;19912;-77
2022/03/09 06:17:17;;;;;;;;;;;10.00;99.90;;;;;;5096287;28;20003;-77
2022/03/09 06:19:43;;;;;;;;;;;10.00;99.90;;;;;;5095686;28;19915;-77
2022/03/09 06:22:09;;;;;;;;;;;10.00;99.90;;;;;;5096144;28;19950;-77
2022/03/09 06:24:34;;;;;;;;;;;10.00;99.90;;;;;;5097634;28;19915;-77
2022/03/09 06:27:00;;;;;;;;;;;10.00;99.90;;;;;;5099206;28;20007;-76
2022/03/09 06:29:26;;;;;;;;;;;9.90;99.90;;;;;;5095655;28;19916;-76
2022/03/09 06:31:51;;;;;;;;;;;10.00;99.90;;;;;;5095264;28;20097;-77
2022/03/09 06:34:17;;;;;;;;;;;10.00;99.90;;;;;;5095843;28;19912;-76
2022/03/09 06:36:44;;;;;;;;;;;10.00;99.90;;;;;;5095236;28;19962;-76
2022/03/09 06:39:12;;;;;;;;;;;10.00;99.90;;;;;;5095830;28;20207;-77
2022/03/09 06:41:42;;;;;;;;;;;10.00;99.90;;;;;;5095114;28;19931;-77
2022/03/09 06:44:07;;;;;;;;;;;10.00;99.90;;;;;;5096025;28;19919;-76
2022/03/09 06:46:33;;;;;;;;;;;10.00;99.90;;;;;;5094904;28;20237;-75
2022/03/09 06:48:58;;;;;;;;;;;10.00;99.90;;;;;;5095197;28;19962;-76
2022/03/09 06:51:24;;;;;;;;;;;10.00;99.90;;;;;;5095773;28;19908;-76
2022/03/09 06:53:49;;;;;;;;;;;10.00;99.90;;;;;;5094563;28;19908;-75
2022/03/09 06:56:16;;;;;;;;;;;9.90;99.90;;;;;;5094380;28;19914;-76
2022/03/09 06:58:41;;;;;;;;;;;9.90;99.90;;;;;;5094430;28;20287;-78
2022/03/09 07:01:07;;;;;;;;;;;10.00;99.90;;;;;;5095631;28;19916;-78
2022/03/09 07:03:32;;;;;;;;;;;10.00;99.90;;;;;;5094173;28;19908;-76
2022/03/09 07:05:58;;;;;;;;;;;10.00;99.90;;;;;;5095413;28;19908;-77
2022/03/09 07:08:23;;;;;;;;;;;10.00;99.90;;;;;;5095263;28;20250;-79
2022/03/09 07:10:50;;;;;;;;;;;10.00;99.90;;;;;;5094772;28;19915;-79
2022/03/09 07:13:15;;;;;;;;;;;10.00;99.90;;;;;;5095224;28;19908;-78
2022/03/09 07:15:41;;;;;;;;;;;10.00;99.90;;;;;;5094163;28;19909;-77
2022/03/09 07:18:06;;;;;;;;;;;10.00;99.90;;;;;;5095024;28;20049;-78
2022/03/09 07:20:32;;;;;;;;;;;10.10;99.90;;;;;;5095225;28;19908;-78
2022/03/09 07:22:58;;;;;;;;;;;10.10;99.90;;;;;;5094037;28;19908;-78
2022/03/09 07:25:23;;;;;;;;;;;10.10;99.90;;;;;;5094733;28;20046;-78
2022/03/09 07:27:49;;;;;;;;;;;10.10;99.90;;;;;;5093890;28;19961;-78
2022/03/09 07:30:14;;;;;;;;;;;10.10;99.90;;;;;;5094429;28;19977;-78
2022/03/09 07:32:40;;;;;;;;;;;10.10;99.90;;;;;;5094038;28;19908;-77
2022/03/09 07:35:06;;;;;;;;;;;10.10;99.90;;;;;;5094447;28;19915;-78
2022/03/09 07:37:32;;;;;;;;;;;10.10;99.90;;;;;;5094978;28;19908;-77
2022/03/09 07:39:57;;;;;;;;;;;10.20;99.90;;;;;;5108046;28;19930;-79
2022/03/09 07:42:23;;;;;;;;;;;10.20;99.90;;;;;;5094995;28;20261;-78
2022/03/09 07:44:49;;;;;;;;;;;10.20;99.90;;;;;;5093892;28;19915;-78
2022/03/09 07:47:14;;;;;;;;;;;10.20;99.90;;;;;;5094449;28;19908;-78
2022/03/09 07:49:40;;;;;;;;;;;10.20;99.90;;;;;;5092143;28;20331;-78
2022/03/09 07:52:06;;;;;;;;;;;10.20;99.90;;;;;;5093002;28;19909;-79
2022/03/09 07:54:31;;;;;;;;;;;10.20;99.90;;;;;;5094052;28;19961;-79
2022/03/09 07:56:57;;;;;;;;;;;10.20;99.90;;;;;;5093055;28;19912;-78
2022/03/09 07:59:23;;;;;;;;;;;10.20;99.90;;;;;;5093503;28;20456;-79
2022/03/09 08:01:52;;;;;;;;;;;10.20;99.90;;;;;;5093367;28;19912;-78
2022/03/09 08:04:19;;;;;;;;;;;10.10;99.90;;;;;;5094031;28;19954;-79
2022/03/09 08:06:46;;;;;;;;;;;10.10;99.90;;;;;;5093364;28;19908;-78
2022/03/09 08:09:12;;;;;;;;;;;10.10;99.90;;;;;;5093877;28;19916;-78
2022/03/09 08:11:38;;;;;;;;;;;10.20;99.90;;;;;;5093445;28;19931;-76
2022/03/09 08:14:03;;;;;;;;;;;10.20;99.90;;;;;;5093482;28;19908;-77
2022/03/09 08:16:29;;;;;;;;;;;10.20;99.90;;;;;;5093687;28;20305;-77
2022/03/09 08:18:54;;;;;;;;;;;10.20;99.90;;;;;;5093207;28;19931;-77
2022/03/09 08:21:20;;;;;;;;;;;10.20;99.90;;;;;;5093702;28;19951;-77
2022/03/09 08:23:45;;;;;;;;;;;10.20;99.90;;;;;;5092932;28;19980;-77
2022/03/09 08:26:11;;;;;;;;;;;10.20;99.90;;;;;;5093591;28;19996;-77
2022/03/09 08:28:37;;;;;;;;;;;10.20;99.90;;;;;;5093149;28;19920;-77
2022/03/09 08:31:02;;;;;;;;;;;10.20;99.90;;;;;;5093000;28;20404;-77
2022/03/09 08:33:28;;;;;;;;;;;10.20;99.90;;;;;;5093457;28;19908;-77
2022/03/09 08:35:53;;;;;;;;;;;10.30;99.90;;;;;;5092938;28;19914;-77
2022/03/09 08:38:19;;;;;;;;;;;10.30;99.90;;;;;;5093476;28;20353;-77
2022/03/09 08:40:44;;;;;;;;;;;10.30;99.90;;;;;;5092791;28;19908;-77
2022/03/09 08:43:11;;;;;;;;;;;10.30;99.90;;;;;;5093105;28;20363;-77
2022/03/09 08:45:37;;;;;;;;;;;10.30;99.90;;;;;;5093360;28;20418;-77
2022/03/09 08:48:03;;;;;;;;;;;10.40;99.90;;;;;;5092525;28;19908;-77
2022/03/09 08:50:28;;;;;;;;;;;10.40;99.90;;;;;;5092963;28;20333;-77
2022/03/09 08:52:54;;;;;;;;;;;10.40;99.90;;;;;;5098159;28;19943;-77
2022/03/09 08:55:20;;;;;;;;;;;10.50;99.90;;;;;;5096574;28;20391;-77
2022/03/09 08:57:45;;;;;;;;;;;10.50;99.90;;;;;;5092081;28;19908;-77
2022/03/09 09:00:11;;;;;;;;;;;10.60;99.90;;;;;;5093011;28;19951;-77
2022/03/09 09:02:37;;;;;;;;;;;10.60;99.90;;;;;;5091714;28;19974;-77
2022/03/09 09:05:02;;;;;;;;;;;10.70;99.90;;;;;;5091953;28;20353;-77
2022/03/09 09:07:28;;;;;;;;;;;10.70;99.90;;;;;;5092329;28;19942;-77
2022/03/09 09:09:53;;;;;;;;;;;10.70;99.90;;;;;;5091896;28;19924;-77
2022/03/09 09:12:19;;;;;;;;;;;10.70;99.90;;;;;;5091833;28;20040;-78
2022/03/09 09:14:44;;;;;;;;;;;10.70;99.90;;;;;;5091797;28;19908;-77
2022/03/09 09:17:10;;;;;;;;;;;10.70;99.90;;;;;;5092423;28;19999;-77
2022/03/09 09:19:36;;;;;;;;;;;10.70;99.90;;;;;;5092129;28;20089;-77
2022/03/09 09:22:03;;;;;;;;;;;10.70;99.90;;;;;;5091760;28;19955;-77
2022/03/09 09:24:29;;;;;;;;;;;10.70;99.90;;;;;;5093872;28;20018;-78
2022/03/09 09:26:54;;;;;;;;;;;10.70;99.90;;;;;;5098238;28;20361;-78
2022/03/09 09:29:20;;;;;;;;;;;10.70;99.90;;;;;;5092584;28;19916;-77
2022/03/09 09:31:47;;;;;;;;;;;10.60;99.90;;;;;;5090269;28;20039;-77
2022/03/09 09:34:12;;;;;;;;;;;10.60;99.90;;;;;;5092207;28;20002;-78
2022/03/09 09:36:41;;;;;;;;;;;10.60;99.90;;;;;;5092341;28;19944;-78
2022/03/09 09:39:06;;;;;;;;;;;10.60;99.90;;;;;;5092608;28;19908;-77
2022/03/09 09:41:33;;;;;;;;;;;10.60;99.90;;;;;;5089046;28;20505;-78
2022/03/09 09:44:03;;;;;;;;;;;10.60;99.90;;;;;;5090287;28;19916;-79
2022/03/09 09:46:28;;;;;;;;;;;10.60;99.90;;;;;;5092248;28;19915;-80
2022/03/09 09:48:54;;;;;;;;;;;10.60;99.90;;;;;;5090946;28;19920;-79
2022/03/09 09:51:22;;;;;;;;;;;10.50;99.90;;;;;;5091449;28;19912;-77
2022/03/09 09:53:48;;;;;;;;;;;10.50;99.90;;;;;;5091414;28;19916;-77
2022/03/09 09:56:13;;;;;;;;;;;10.50;99.90;;;;;;5091789;28;19953;-78
2022/03/09 09:58:42;;;;;;;;;;;10.60;99.90;;;;;;5090401;28;19920;-77
2022/03/09 10:01:08;;;;;;;;;;;10.60;99.90;;;;;;5091981;28;19912;-79
2022/03/09 10:03:34;;;;;;;;;;;10.60;99.90;;;;;;5091806;28;20248;-78
2022/03/09 10:06:00;;;;;;;;;;;10.60;99.90;;;;;;5096462;28;19904;-78
2022/03/09 10:08:25;;;;;;;;;;;10.50;99.90;;;;;;5096737;28;19923;-76
2022/03/09 10:10:57;;;;;;;;;;;10.50;99.90;;;;;;5095714;28;19912;-77
2022/03/09 10:13:27;;;;;;;;;;;10.50;99.90;;;;;;5093222;28;19953;-78
2022/03/09 10:16:13;;;;;;;;;;;10.50;99.90;;;;;;5091406;28;20337;-77
2022/03/09 10:18:39;;;;;;;;;;;10.50;99.90;;;;;;5090828;28;19995;-77
2022/03/09 10:21:21;;;;;;;;;;;10.50;99.90;;;;;;5091106;28;19915;-77
2022/03/09 10:23:50;;;;;;;;;;;10.50;99.90;;;;;;5090804;28;20333;-78
2022/03/09 10:26:17;;;;;;;;;;;10.50;99.90;;;;;;5091310;28;19919;-79
2022/03/09 10:29:00;;;;;;;;;;;10.50;99.90;;;;;;5090965;28;19917;-79
2022/03/09 10:31:39;;;;;;;;;;;10.50;99.90;;;;;;5091633;28;19961;-79
2022/03/09 10:34:09;;;;;;;;;;;10.50;99.90;;;;;;5091210;28;19908;-79
2022/03/09 10:36:35;;;;;;;;;;;10.50;99.90;;;;;;5090326;28;19908;-80
2022/03/09 10:39:10;;;;;;;;;;;10.50;99.90;;;;;;5093846;28;19958;-79
2022/03/09 10:41:36;;;;;;;;;;;10.40;99.90;;;;;;5095191;28;19908;-79
2022/03/09 10:44:01;;;;;;;;;;;10.40;99.90;;;;;;5093983;28;20289;-78
2022/03/09 10:46:39;;;;;;;;;;;10.50;99.90;;;;;;5095181;28;19961;-78
2022/03/09 10:49:06;;;;;;;;;;;10.40;99.90;;;;;;5093724;28;19916;-79
2022/03/09 10:51:41;;;;;;;;;;;10.40;99.90;;;;;;5095064;28;19915;-79
2022/03/09 10:54:35;;;;;;;;;;;10.40;99.90;;;;;;5095301;28;19916;-78
2022/03/09 10:57:06;;;;;;;;;;;10.40;99.90;;;;;;5094361;28;19916;-79
2022/03/09 10:59:48;;;;;;;;;;;10.40;99.90;;;;;;5105104;28;19995;-81
2022/03/09 11:02:15;;;;;;;;;;;10.40;99.90;;;;;;5094151;28;20285;-80
2022/03/09 11:04:41;;;;;;;;;;;10.50;99.90;;;;;;5094959;28;19908;-78
2022/03/09 11:07:09;;;;;;;;;;;10.40;99.90;;;;;;5094601;28;20353;-80
2022/03/09 11:09:36;;;;;;;;;;;10.50;99.90;;;;;;5094640;28;20412;-81
2022/03/09 11:12:02;;;;;;;;;;;10.50;99.90;;;;;;5093839;28;19904;-81
2022/03/09 11:14:29;;;;;;;;;;;10.50;99.90;;;;;;5094878;28;20081;-81
2022/03/09 11:16:57;;;;;;;;;;;10.50;99.90;;;;;;5093623;28;19908;-81
2022/03/09 11:19:23;;;;;;;;;;;10.50;99.90;;;;;;5096373;28;19915;-81
2022/03/09 11:21:49;;;;;;;;;;;10.50;99.90;;;;;;5093582;28;20014;-80
2022/03/09 11:24:15;;;;;;;;;;;10.50;99.90;;;;;;5094344;28;20376;-81
2022/03/09 11:26:43;;;;;;;;;;;10.50;99.90;;;;;;5094202;28;19915;-79
2022/03/09 11:29:12;;;;;;;;;;;10.50;99.90;;;;;;5092152;28;19916;-79
2022/03/09 11:31:41;;;;;;;;;;;10.50;99.90;;;;;;5076551;28;20023;-81
2022/03/09 11:34:06;;;;;;;;;;;10.50;99.90;;;;;;5093709;28;19958;-79
2022/03/09 11:36:33;;;;;;;;;;;10.50;99.90;;;;;;5094425;28;19908;-79
2022/03/09 11:38:58;;;;;;;;;;;10.50;99.90;;;;;;5093631;28;19920;-79
2022/03/09 11:41:25;;;;;;;;;;;10.50;99.90;;;;;;5093655;28;19910;-80
2022/03/09 11:44:10;;;;;;;;;;;10.60;99.90;;;;;;5092369;28;19915;-82
2022/03/09 11:46:55;;;;;;;;;;;10.60;99.90;;;;;;5100817;28;19971;-82
2022/03/09 11:49:20;;;;;;;;;;;10.60;99.90;;;;;;5102490;28;19916;-81
2022/03/09 11:52:04;;;;;;;;;;;10.60;99.90;;;;;;5095990;28;19965;-81
2022/03/09 11:54:52;;;;;;;;;;;10.50;99.90;;;;;;5093908;28;19915;-82
2022/03/09 11:57:18;;;;;;;;;;;10.50;99.90;;;;;;5082334;28;20266;-88
2022/03/09 11:59:59;;;;;;;;;;;10.50;99.90;;;;;;5093908;28;20010;-88
2022/03/09 12:02:37;;;;;;;;;;;10.40;99.90;;;;;;5118267;28;19970;-85
2022/03/09 12:05:04;;;;;;;;;;;10.30;99.90;;;;;;5093159;28;19916;-87
2022/03/09 12:07:34;;;;;;;;;;;10.30;99.90;;;;;;5092430;28;19982;-85
2022/03/09 12:10:01;;;;;;;;;;;10.20;99.90;;;;;;5091593;28;19916;-88
2022/03/09 12:12:28;;;;;;;;;;;9.90;99.90;;;;;;5093130;28;20297;-88
2022/03/09 12:15:07;;;;;;;;;;;9.40;99.90;;;;;;5093643;28;19922;-90
2022/03/09 12:17:37;;;;;;;;;;;9.20;99.90;;;;;;5091497;28;19916;-89
2022/03/09 12:20:21;;;;;;;;;;;8.90;99.90;;;;;;5091989;28;20392;-89
2022/03/09 12:22:59;;;;;;;;;;;8.80;99.90;;;;;;5093386;28;19915;-91
2022/03/09 12:25:36;;;;;;;;;;;8.60;99.90;;;;;;5091864;28;19908;-90
2022/03/09 12:28:21;;;;;;;;;;;8.60;99.90;;;;;;5091808;28;20348;-89
2022/03/09 12:30:51;;;;;;;;;;;8.50;99.90;;;;;;5091995;28;19908;-87
2022/03/09 12:33:39;;;;;;;;;;;8.40;99.90;;;;;;5094394;28;19954;-92
2022/03/09 12:36:12;;;;;;;;;;;8.50;99.90;;;;;;5085005;28;19908;-88
2022/03/09 12:38:38;;;;;;;;;;;8.50;99.90;;;;;;5092586;28;19915;-90
2022/03/09 12:41:04;;;;;;;;;;;8.50;99.90;;;;;;5091914;28;19908;-91
2022/03/09 12:43:52;;;;;;;;;;;8.50;99.90;;;;;;5093109;28;19915;-89
2022/03/09 12:46:18;;;;;;;;;;;8.50;99.90;;;;;;5093561;28;19908;-88
2022/03/09 12:48:47;;;;;;;;;;;8.40;99.90;;;;;;5093280;28;20125;-85
2022/03/09 12:51:13;;;;;;;;;;;8.50;99.90;;;;;;5093791;28;19977;-90
2022/03/09 12:53:41;;;;;;;;;;;8.50;99.90;;;;;;5093742;28;20408;-89
2022/03/09 12:56:13;;;;;;;;;;;8.50;99.90;;;;;;5093393;28;20238;-91
2022/03/09 12:58:39;;;;;;;;;;;8.60;99.90;;;;;;5093530;28;19920;-90
2022/03/09 13:01:05;;;;;;;;;;;8.60;99.90;;;;;;5090910;28;20470;-89
2022/03/09 13:03:30;;;;;;;;;;;8.70;99.90;;;;;;5092069;28;19926;-91
2022/03/09 13:05:56;;;;;;;;;;;8.60;99.90;;;;;;5093723;28;19909;-91
2022/03/09 13:08:21;;;;;;;;;;;8.60;99.90;;;;;;5094805;28;20304;-91
2022/03/09 13:10:51;;;;;;;;;;;8.50;99.90;;;;;;5097332;28;19912;-85
2022/03/09 13:13:17;;;;;;;;;;;8.40;99.90;;;;;;5117533;28;19920;-88
2022/03/09 13:15:45;;;;;;;;;;;8.20;99.90;;;;;;5107725;28;19915;-91
2022/03/09 13:18:13;;;;;;;;;;;8.00;99.90;;;;;;5094025;28;19912;-91
2022/03/09 13:20:41;;;;;;;;;;;8.00;99.90;;;;;;5092665;28;19954;-88
2022/03/09 13:23:35;;;;;;;;;;;7.90;99.90;;;;;;5092084;28;19916;-92
2022/03/09 13:26:11;;;;;;;;;;;7.70;99.90;;;;;;5088752;28;19914;-90
2022/03/09 13:28:37;;;;;;;;;;;7.60;99.90;;;;;;5093514;28;19984;-91
2022/03/09 13:31:03;;;;;;;;;;;7.50;99.90;;;;;;5095175;28;19955;-91
2022/03/09 13:33:28;;;;;;;;;;;7.60;99.90;;;;;;5092584;28;19955;-90
2022/03/09 13:35:54;;;;;;;;;;;7.60;99.90;;;;;;5091301;28;19993;-89
2022/03/09 13:38:28;;;;;;;;;;;7.60;99.90;;;;;;5091113;28;20326;-87
2022/03/09 13:41:01;;;;;;;;;;;7.70;99.90;;;;;;5091660;28;19962;-86
2022/03/09 13:43:28;;;;;;;;;;;7.70;99.90;;;;;;5091128;28;20422;-87
2022/03/09 13:45:54;;;;;;;;;;;7.80;99.90;;;;;;5091717;28;19927;-87
2022/03/09 13:48:23;;;;;;;;;;;7.80;99.90;;;;;;5091780;28;20011;-87
2022/03/09 13:51:02;;;;;;;;;;;7.70;99.90;;;;;;5091706;28;20281;-87
2022/03/09 13:53:32;;;;;;;;;;;7.90;99.90;;;;;;5090958;28;19916;-91
2022/03/09 13:55:58;;;;;;;;;;;7.90;99.90;;;;;;5090442;28;19912;-90
2022/03/09 13:58:26;;;;;;;;;;;7.70;99.90;;;;;;5092609;28;19989;-87
2022/03/09 14:01:08;;;;;;;;;;;7.60;99.90;;;;;;5094653;28;19908;-85
2022/03/09 14:03:39;;;;;;;;;;;7.40;99.90;;;;;;5094096;28;19914;-86
2022/03/09 14:06:11;;;;;;;;;;;7.50;99.90;;;;;;5091681;28;19953;-83
2022/03/09 14:08:37;;;;;;;;;;;7.40;99.90;;;;;;5092461;28;20383;-85
2022/03/09 14:11:13;;;;;;;;;;;7.40;99.90;;;;;;5093979;28;19909;-84
2022/03/09 14:13:57;;;;;;;;;;;7.30;99.90;;;;;;5097348;28;19915;-87
2022/03/09 14:16:23;;;;;;;;;;;7.40;99.90;;;;;;5096117;28;20055;-83
2022/03/09 14:18:49;;;;;;;;;;;7.40;99.90;;;;;;5094830;28;20486;-80
2022/03/09 14:21:15;;;;;;;;;;;7.50;99.90;;;;;;5095947;28;19991;-81
2022/03/09 14:23:40;;;;;;;;;;;7.60;99.90;;;;;;5095516;28;19912;-81
2022/03/09 14:26:06;;;;;;;;;;;7.40;99.90;;;;;;5100381;28;19896;-78